LGAL/AXD METAR and TAF weather

Enter ICAO airport designator
Station Type Date Time Source
LGAL METAR 2019/02/16 07:20 UTC NOAA

LGAL 160720Z 01020G30KT 9999 SCT030 06/M03 Q1029


Station Type Date Time Source
LGAL Decoded METAR 2019/02/16 07:20 UTC NOAA

Alexandroupoli Airport , Greece (LGAL) 40-51N 025-55E 3M
Feb 16, 2019 - 02:20 AM EST / 2019.02.16 0720 UTC
Wind: from the N (010 degrees) at 23 MPH (20 KT) gusting to 35 MPH (30 KT):0
Visibility: greater than 7 mile(s):0
Sky conditions: partly cloudy
Temperature: 42 F (6 C)
Dew Point: 26 F (-3 C)
Relative Humidity: 52%
Pressure (altimeter): 30.39 in. Hg (1029 hPa)
ob: LGAL 160720Z 01020G30KT 9999 SCT030 06/M03 Q1029
cycle: 7

Station Type Date Time Source
LGAL TAF 2012/09/21 03:06 UTC NOAA

TAF TAF LGAL 210200Z 2103/2115 03012G22KT 9999 FEW020 SCT070 PROB30
TEMPO 2103/2106 6000 RA SCT015 BKN030 PROB30


Example: see airport list